Portada
METAR-TAF:

METAR-TAF

Aeroports :

Puvirnituq, Quebec, Canadà

latitud: 60-03N, longitud: 077-17W, altitud: 23 m

Observació

L'informe es va fer fa 38 minuts, a les 03:00 UTC
Vent 11 kt del Oest/Nord-Oest
Temperatura 1°C
Humitat 100%
Pressió 1011 hPa
Visibilitat: 14.5 km
Cel cobert a una alçada de 400 ft

METAR: CYPX 060300Z AUTO 30011KT 9SM OVC004 01/01 A2985 RMK SLP110

Hora: 23:38 (03:38 UTC)

Pronòstic

L'informe es va fer fa 51 minuts, a les 02:47 UTC
Pronòstic vàlid del 06 a les 02 UTC al 06 a les 12 UTC
Vent 10 kt del Oest/Nord-Oest
Visibilitat: 10 km
Núvols disperses a una alçada de 400 ft
Cel ennuvolat a una alçada de 1500 ft
Temporalment
l' 06 a les 02 UTC al 06 a les 12 UTC
Visibilitat: 1.6 km
Cel ennuvolat a una alçada de 400 ft
Cel cobert a una alçada de 1500 ft
boirina

TAF: CYPX 060247Z 0602/0612 30010KT P6SM SCT004 BKN015 TEMPO 0602/0612 1SM BR BKN004 OVC015 RMK FCST BASED ON AUTO OBS. NXT FCST BY 060600Z

Observacions i pronòstics meteorològics de més de 4000 aeroports (METAR i TAF).

Les estacions disponibles són els punts grocs i vermells al mapa.

Posi el ratolí al punt desitjat per veure el nom de l'estació.

Feu clic per veure les observacions i els pronòstics meteorològics.

Per canviar el mapa: feu clic els botons verds amb una creu de color negre per apropar; al botó verd amb un guió per allunyar la imatge; o en les fletxes verdes per a mapes adjacents.


METAR-TAF: